createdAt,value
2023-02-23T00:02:14.025Z,13.57
2023-02-23T00:04:43.573Z,24.73
2023-02-23T00:07:11.579Z,21.73
2023-02-23T00:09:40.391Z,22.10
2023-02-23T00:12:08.754Z,22.00
2023-02-23T00:14:38.622Z,18.67
2023-02-23T00:17:10.778Z,21.40
2023-02-23T00:19:39.119Z,21.63
2023-02-23T00:22:08.407Z,22.00
2023-02-23T00:24:38.881Z,15.17
2023-02-23T00:27:07.010Z,20.20
2023-02-23T00:29:40.670Z,17.10
2023-02-23T00:32:09.155Z,17.03
2023-02-23T00:34:38.304Z,21.97
2023-02-23T00:37:06.960Z,24.73
2023-02-23T00:39:36.281Z,19.93
2023-02-23T00:42:06.592Z,20.33
2023-02-23T00:44:34.904Z,23.00
2023-02-23T00:47:03.411Z,27.30
2023-02-23T00:49:31.695Z,27.77
2023-02-23T00:51:59.778Z,23.57
2023-02-23T00:54:27.756Z,21.10
2023-02-23T00:56:57.101Z,24.50
2023-02-23T00:59:25.076Z,16.47
2023-02-23T01:01:53.317Z,17.30
2023-02-23T01:04:22.977Z,26.03
2023-02-23T01:06:50.924Z,25.60
2023-02-23T01:09:27.914Z,21.63
2023-02-23T01:12:01.773Z,22.97
2023-02-23T01:14:31.219Z,18.43
2023-02-23T01:16:59.326Z,22.73
2023-02-23T01:19:27.401Z,19.03
2023-02-23T01:21:55.436Z,23.27
2023-02-23T01:24:23.392Z,22.07
2023-02-23T01:26:51.367Z,23.67
2023-02-23T01:29:20.669Z,28.57
2023-02-23T01:31:51.159Z,23.70
2023-02-23T01:34:21.615Z,22.57
2023-02-23T01:36:49.728Z,19.33
2023-02-23T01:39:20.576Z,24.20
2023-02-23T01:41:48.617Z,20.87
2023-02-23T01:44:53.817Z,20.13
2023-02-23T01:47:23.318Z,29.87
2023-02-23T01:49:51.306Z,25.33
2023-02-23T01:52:20.271Z,30.13
2023-02-23T01:54:52.883Z,24.97
2023-02-23T01:57:24.836Z,18.87
2023-02-23T01:59:53.714Z,22.00
2023-02-23T02:02:32.941Z,23.07
2023-02-23T02:05:01.907Z,20.20
2023-02-23T02:07:32.004Z,21.10
2023-02-23T02:10:16.911Z,23.37
2023-02-23T02:12:47.502Z,27.10
2023-02-23T02:15:18.016Z,28.93
2023-02-23T02:17:57.484Z,29.27
2023-02-23T02:20:52.347Z,19.80
2023-02-23T02:24:12.291Z,27.93
2023-02-23T02:26:52.422Z,18.13
2023-02-23T02:30:01.737Z,29.30
2023-02-23T02:33:06.715Z,23.03
2023-02-23T02:36:02.661Z,19.83
2023-02-23T02:38:42.972Z,20.30
2023-02-23T02:41:16.417Z,28.33
2023-02-23T02:43:52.287Z,25.13
2023-02-23T02:46:24.048Z,26.33
2023-02-23T02:49:06.408Z,27.47
2023-02-23T02:51:43.446Z,25.60
2023-02-23T02:54:21.010Z,25.00
2023-02-23T02:56:51.384Z,23.00
2023-02-23T02:59:38.977Z,23.67
2023-02-23T03:02:24.899Z,27.53
2023-02-23T03:05:10.566Z,24.43
2023-02-23T03:08:11.927Z,25.03
2023-02-23T03:11:06.240Z,22.13
2023-02-23T03:14:03.454Z,24.47
2023-02-23T03:16:56.150Z,24.20
2023-02-23T03:19:45.761Z,29.80
2023-02-23T03:22:40.428Z,26.13
2023-02-23T03:25:29.761Z,26.67
2023-02-23T03:28:26.911Z,22.70
2023-02-23T03:31:21.362Z,16.43
2023-02-23T03:34:17.607Z,24.37
2023-02-23T03:37:11.220Z,26.67
2023-02-23T03:40:01.901Z,20.07
2023-02-23T03:42:53.654Z,31.73
2023-02-23T03:45:43.804Z,27.57
2023-02-23T03:48:32.254Z,27.27
2023-02-23T03:51:21.851Z,25.80
2023-02-23T03:54:11.381Z,22.40
2023-02-23T03:57:01.428Z,28.07
2023-02-23T03:59:49.927Z,26.37
2023-02-23T04:02:38.375Z,28.37
2023-02-23T04:05:27.706Z,25.27
2023-02-23T04:08:13.590Z,30.50
2023-02-23T04:11:08.593Z,23.27
2023-02-23T04:13:38.057Z,26.87
2023-02-23T04:16:08.030Z,28.60
2023-02-23T04:18:39.325Z,23.77
2023-02-23T04:21:08.707Z,25.53
2023-02-23T04:23:40.593Z,26.20
2023-02-23T04:26:08.587Z,28.17
2023-02-23T04:28:36.533Z,26.10
2023-02-23T04:31:04.652Z,34.20
2023-02-23T04:33:32.654Z,26.30
2023-02-23T04:36:01.985Z,31.30
2023-02-23T04:38:29.992Z,27.03
2023-02-23T04:40:57.946Z,25.77
2023-02-23T04:43:25.887Z,24.30
2023-02-23T04:45:54.140Z,25.73
2023-02-23T04:48:25.037Z,29.70
2023-02-23T04:50:53.917Z,37.77
2023-02-23T04:53:24.006Z,27.93
2023-02-23T04:55:51.945Z,28.90
2023-02-23T04:58:19.891Z,26.03
2023-02-23T05:00:47.990Z,25.77
2023-02-23T05:03:17.387Z,29.60
2023-02-23T05:05:46.161Z,24.40
2023-02-23T05:08:14.188Z,31.63
2023-02-23T05:10:43.531Z,26.03
2023-02-23T05:13:11.491Z,26.73
2023-02-23T05:15:39.672Z,24.60
2023-02-23T05:18:08.145Z,30.63
2023-02-23T05:20:36.203Z,36.20
2023-02-23T05:23:04.335Z,27.70
2023-02-23T05:25:32.668Z,37.13
2023-02-23T05:28:02.401Z,25.50
2023-02-23T05:30:30.418Z,36.23
2023-02-23T05:32:58.392Z,29.37
2023-02-23T05:35:26.339Z,27.30
2023-02-23T05:37:54.402Z,28.27
2023-02-23T05:40:22.427Z,25.90
2023-02-23T05:42:50.433Z,31.50
2023-02-23T05:45:19.915Z,27.80
2023-02-23T05:47:48.111Z,29.67
2023-02-23T05:50:16.042Z,24.37
2023-02-23T05:52:44.070Z,32.27
2023-02-23T05:55:12.825Z,28.27
2023-02-23T05:57:42.709Z,28.03
2023-02-23T06:00:13.363Z,28.43
2023-02-23T06:02:42.794Z,34.67
2023-02-23T06:05:11.110Z,30.37
2023-02-23T06:07:39.403Z,33.80
2023-02-23T06:10:08.544Z,31.37
2023-02-23T06:12:36.517Z,25.67
2023-02-23T06:15:04.899Z,22.53
2023-02-23T06:17:33.063Z,31.27
2023-02-23T06:20:04.865Z,24.80
2023-02-23T06:22:33.029Z,29.37
2023-02-23T06:25:02.491Z,22.73
2023-02-23T06:27:30.447Z,35.70
2023-02-23T06:29:58.457Z,30.90
2023-02-23T06:32:27.056Z,27.30
2023-02-23T06:34:55.250Z,29.70
2023-02-23T06:37:24.758Z,25.43
2023-02-23T06:39:52.685Z,32.00
2023-02-23T06:42:20.624Z,33.23
2023-02-23T06:44:48.586Z,26.70
2023-02-23T06:47:16.653Z,30.77
2023-02-23T06:49:44.778Z,25.73
2023-02-23T06:52:13.516Z,31.17
2023-02-23T06:54:43.148Z,32.73
2023-02-23T06:57:11.340Z,22.47
2023-02-23T06:59:39.358Z,29.40
2023-02-23T07:02:07.581Z,25.87
2023-02-23T07:04:35.616Z,28.90
2023-02-23T07:07:03.769Z,32.20
2023-02-23T07:09:32.092Z,28.03
2023-02-23T07:12:01.824Z,26.50
2023-02-23T07:14:29.832Z,30.53
2023-02-23T07:16:58.234Z,24.63
2023-02-23T07:19:26.305Z,27.77
2023-02-23T07:21:54.608Z,29.70
2023-02-23T07:24:22.734Z,28.40
2023-02-23T07:26:52.118Z,32.73
2023-02-23T07:29:24.009Z,35.10
2023-02-23T07:31:52.050Z,28.70
2023-02-23T07:34:20.038Z,27.93
2023-02-23T07:36:48.051Z,28.13
2023-02-23T07:39:16.040Z,26.90
2023-02-23T07:41:44.028Z,26.83
2023-02-23T07:44:12.012Z,29.17
2023-02-23T07:46:41.870Z,31.20
2023-02-23T07:49:09.904Z,27.53
2023-02-23T07:51:37.882Z,23.70
2023-02-23T07:54:06.809Z,33.57
2023-02-23T07:56:36.477Z,32.43
2023-02-23T07:59:04.759Z,29.70
2023-02-23T08:01:32.762Z,23.53
2023-02-23T08:04:02.190Z,30.30
2023-02-23T08:06:31.529Z,25.70
2023-02-23T08:09:00.192Z,30.83
2023-02-23T08:11:29.646Z,26.30
2023-02-23T08:14:00.428Z,30.73
2023-02-23T08:16:28.858Z,29.77
2023-02-23T08:18:58.280Z,30.57
2023-02-23T08:21:29.359Z,22.83
2023-02-23T08:23:57.797Z,28.83
2023-02-23T08:26:26.318Z,32.27
2023-02-23T08:28:55.326Z,28.57
2023-02-23T08:31:25.074Z,28.53
2023-02-23T08:33:53.948Z,34.40
2023-02-23T08:36:22.412Z,37.63
2023-02-23T08:38:51.796Z,30.53
2023-02-23T08:41:20.039Z,28.93
2023-02-23T08:43:48.791Z,24.70
2023-02-23T08:46:18.752Z,31.33
2023-02-23T08:48:47.156Z,27.50
2023-02-23T08:51:15.657Z,31.23
2023-02-23T08:53:43.586Z,33.70
2023-02-23T08:56:14.701Z,30.50
2023-02-23T08:58:43.184Z,31.77
2023-02-23T09:01:18.791Z,30.83
2023-02-23T09:03:46.985Z,30.50
2023-02-23T09:06:17.480Z,28.60
2023-02-23T09:08:45.438Z,30.80
2023-02-23T09:11:14.824Z,35.73
2023-02-23T09:13:42.765Z,29.63
2023-02-23T09:16:11.014Z,36.93
2023-02-23T09:18:39.596Z,30.50
2023-02-23T09:21:10.779Z,33.00
2023-02-23T09:23:38.822Z,36.93
2023-02-23T09:26:07.968Z,37.90
2023-02-23T09:28:38.668Z,31.47
2023-02-23T09:31:08.467Z,29.47
2023-02-23T09:33:36.782Z,26.83
2023-02-23T09:36:09.222Z,36.00
2023-02-23T09:38:37.197Z,27.03
2023-02-23T09:41:10.293Z,36.10
2023-02-23T09:43:48.620Z,29.67
2023-02-23T09:46:29.344Z,30.97
2023-02-23T09:48:59.920Z,29.60
2023-02-23T09:51:29.442Z,31.93
2023-02-23T09:54:01.856Z,29.57
2023-02-23T09:56:36.889Z,34.00
2023-02-23T09:59:10.085Z,36.73
2023-02-23T10:02:01.679Z,31.80
2023-02-23T10:04:32.513Z,30.47
2023-02-23T10:07:05.368Z,28.83
2023-02-23T10:09:52.009Z,27.43
2023-02-23T10:12:29.879Z,31.57
2023-02-23T10:15:24.524Z,34.10
2023-02-23T10:18:03.403Z,29.20
2023-02-23T10:20:38.359Z,31.33
2023-02-23T10:23:09.865Z,26.00
2023-02-23T10:25:42.378Z,24.93
2023-02-23T10:28:16.111Z,30.90
2023-02-23T10:30:46.679Z,28.60
2023-02-23T10:33:17.655Z,27.87
2023-02-23T10:35:46.570Z,29.23
2023-02-23T10:38:17.299Z,22.20
2023-02-23T10:40:50.797Z,27.67
2023-02-23T10:43:18.775Z,25.03
2023-02-23T10:45:49.791Z,22.93
2023-02-23T10:48:19.827Z,26.43
2023-02-23T10:50:50.869Z,24.97
2023-02-23T10:53:23.266Z,27.13
2023-02-23T10:56:04.258Z,27.10
2023-02-23T10:58:32.876Z,29.80
2023-02-23T11:01:03.807Z,29.27
2023-02-23T11:03:36.772Z,30.27
2023-02-23T11:06:04.988Z,25.07
2023-02-23T11:08:35.215Z,23.70
2023-02-23T11:11:28.693Z,23.30
2023-02-23T11:13:58.189Z,21.07
2023-02-23T11:16:31.034Z,26.63
2023-02-23T11:19:01.540Z,24.77
2023-02-23T11:21:33.382Z,24.33
2023-02-23T11:24:12.767Z,22.53
2023-02-23T11:26:44.259Z,22.07
2023-02-23T11:29:21.137Z,22.47
2023-02-23T11:31:53.561Z,24.20
2023-02-23T11:34:28.811Z,28.47
2023-02-23T11:37:05.953Z,29.57
2023-02-23T11:39:34.363Z,28.00
2023-02-23T11:42:15.248Z,25.57
2023-02-23T11:44:43.346Z,25.37
2023-02-23T11:47:21.612Z,26.23
2023-02-23T11:49:50.801Z,26.83
2023-02-23T11:52:23.074Z,23.57
2023-02-23T11:54:57.316Z,27.70
2023-02-23T11:57:29.356Z,26.17
2023-02-23T11:59:58.794Z,27.33
2023-02-23T12:02:29.950Z,28.03
2023-02-23T12:05:08.141Z,24.73
2023-02-23T12:07:41.922Z,31.57
2023-02-23T12:10:21.862Z,26.77
2023-02-23T12:12:59.347Z,25.00
2023-02-23T12:15:37.273Z,26.63
2023-02-23T12:18:16.340Z,26.50
2023-02-23T12:20:48.632Z,25.70
2023-02-23T12:23:20.903Z,29.67
2023-02-23T12:25:53.172Z,26.27
2023-02-23T12:28:27.823Z,29.80
2023-02-23T12:31:01.123Z,29.27
2023-02-23T12:33:37.569Z,32.33
2023-02-23T12:36:19.083Z,29.67
2023-02-23T12:38:54.082Z,32.90
2023-02-23T12:41:32.453Z,32.90
2023-02-23T12:44:07.927Z,35.50
2023-02-23T12:46:43.494Z,35.37
2023-02-23T12:49:20.124Z,34.77
2023-02-23T12:51:52.902Z,34.70
2023-02-23T12:54:20.954Z,35.10
2023-02-23T12:57:04.484Z,33.70
2023-02-23T12:59:53.292Z,35.33
2023-02-23T13:02:26.973Z,36.27
2023-02-23T13:05:20.127Z,35.53
2023-02-23T13:08:04.815Z,35.70
2023-02-23T13:10:47.277Z,39.13
2023-02-23T13:13:26.739Z,33.73
2023-02-23T13:16:04.431Z,36.67
2023-02-23T13:18:38.675Z,37.93
2023-02-23T13:21:15.828Z,37.10
2023-02-23T13:23:52.990Z,35.47
2023-02-23T13:26:29.406Z,36.77
2023-02-23T13:29:01.550Z,37.07
2023-02-23T13:31:35.040Z,35.47
2023-02-23T13:34:05.704Z,42.03
2023-02-23T13:36:36.905Z,42.20
2023-02-23T13:39:29.245Z,35.60
2023-02-23T13:42:10.963Z,37.57
2023-02-23T13:44:44.579Z,37.43
2023-02-23T13:47:21.870Z,39.37
2023-02-23T13:49:56.810Z,39.03
2023-02-23T13:52:31.888Z,44.30
2023-02-23T13:55:02.978Z,40.57
2023-02-23T13:57:31.731Z,39.57
2023-02-23T14:00:00.777Z,37.47
2023-02-23T14:02:36.663Z,37.37
2023-02-23T14:05:07.498Z,36.23
2023-02-23T14:07:43.070Z,38.37
2023-02-23T14:10:19.518Z,37.27
2023-02-23T14:13:07.710Z,42.90
2023-02-23T14:15:48.228Z,40.67
2023-02-23T14:18:36.112Z,38.17
2023-02-23T14:21:13.766Z,39.80
2023-02-23T14:24:05.793Z,40.63
2023-02-23T14:26:43.270Z,42.03
2023-02-23T14:29:24.429Z,39.70
2023-02-23T14:32:01.440Z,45.13
2023-02-23T14:34:47.596Z,45.00
2023-02-23T14:37:27.456Z,42.03
2023-02-23T14:40:02.222Z,45.70
2023-02-23T14:42:30.771Z,42.13
2023-02-23T14:45:05.821Z,42.23
2023-02-23T14:47:44.049Z,44.13
2023-02-23T14:50:26.715Z,45.83
2023-02-23T14:52:56.340Z,47.07
2023-02-23T14:55:29.218Z,42.93
2023-02-23T14:57:58.280Z,44.23
2023-02-23T15:00:28.708Z,45.83
2023-02-23T15:03:00.398Z,50.13
2023-02-23T15:05:31.160Z,47.90
2023-02-23T15:08:02.081Z,52.17
2023-02-23T15:10:34.799Z,47.57
2023-02-23T15:13:10.273Z,47.43
2023-02-23T15:15:45.398Z,51.70
2023-02-23T15:18:22.973Z,51.17
2023-02-23T15:20:51.708Z,48.17
2023-02-23T15:23:21.473Z,50.77
2023-02-23T15:25:51.309Z,55.27
2023-02-23T15:28:25.195Z,53.13
2023-02-23T15:30:54.947Z,54.63
2023-02-23T15:33:28.574Z,52.40
2023-02-23T15:36:04.539Z,58.27
2023-02-23T15:38:44.623Z,52.83
2023-02-23T15:41:25.346Z,54.47
2023-02-23T15:43:53.433Z,52.67
2023-02-23T15:46:25.999Z,55.30
2023-02-23T15:48:56.627Z,52.13
2023-02-23T15:51:33.951Z,52.13
2023-02-23T15:54:03.560Z,56.73
2023-02-23T15:56:36.420Z,58.97
2023-02-23T15:59:11.037Z,55.10
2023-02-23T16:01:43.781Z,59.43
2023-02-23T16:04:19.020Z,54.80
2023-02-23T16:06:53.228Z,57.60
2023-02-23T16:09:29.986Z,60.30
2023-02-23T16:12:04.996Z,58.83
2023-02-23T16:14:43.005Z,60.63
2023-02-23T16:17:20.872Z,58.33
2023-02-23T16:19:48.991Z,60.90
2023-02-23T16:22:24.674Z,65.97
2023-02-23T16:25:03.185Z,67.77
2023-02-23T16:27:32.985Z,67.40
2023-02-23T16:30:16.306Z,63.27
2023-02-23T16:32:45.749Z,59.47
2023-02-23T16:35:18.586Z,60.67
2023-02-23T16:38:12.923Z,64.83
2023-02-23T16:40:41.298Z,61.87
2023-02-23T16:43:11.391Z,64.67
2023-02-23T16:45:42.579Z,69.10
2023-02-23T16:48:14.661Z,65.83
2023-02-23T16:50:42.800Z,63.47
2023-02-23T16:53:12.839Z,68.80
2023-02-23T16:55:44.381Z,73.70
2023-02-23T16:58:19.255Z,66.73
2023-02-23T17:00:47.951Z,71.43
2023-02-23T17:03:20.296Z,73.10
2023-02-23T17:05:48.881Z,67.97
2023-02-23T17:08:17.025Z,74.60
2023-02-23T17:10:47.763Z,90.70
2023-02-23T17:13:20.574Z,73.40
2023-02-23T17:15:51.640Z,79.97
2023-02-23T17:18:20.402Z,78.23
2023-02-23T17:20:48.374Z,88.10
2023-02-23T17:23:16.342Z,72.57
2023-02-23T17:25:44.629Z,76.90
2023-02-23T17:28:12.918Z,74.97
2023-02-23T17:30:43.816Z,78.33
2023-02-23T17:33:12.108Z,76.27
2023-02-23T17:35:40.091Z,74.80
2023-02-23T17:38:08.942Z,71.23
2023-02-23T17:40:37.887Z,72.00
2023-02-23T17:43:08.593Z,69.90
2023-02-23T17:45:36.655Z,71.73
2023-02-23T17:48:06.532Z,73.07
2023-02-23T17:50:34.570Z,79.77
2023-02-23T17:53:02.509Z,72.50
2023-02-23T17:55:30.447Z,79.40
2023-02-23T17:57:58.386Z,74.27
2023-02-23T18:00:28.528Z,74.93
2023-02-23T18:02:56.554Z,73.97
2023-02-23T18:05:25.904Z,74.77
2023-02-23T18:07:53.838Z,74.63
2023-02-23T18:10:25.500Z,74.93
2023-02-23T18:12:53.638Z,77.57
2023-02-23T18:15:21.671Z,73.93
2023-02-23T18:17:49.644Z,78.53
2023-02-23T18:20:18.038Z,74.90
2023-02-23T18:22:47.369Z,82.33
2023-02-23T18:25:22.588Z,83.40
2023-02-23T18:27:53.888Z,76.63
2023-02-23T18:30:23.293Z,79.67
2023-02-23T18:32:52.289Z,82.87
2023-02-23T18:35:20.529Z,75.80
2023-02-23T18:37:50.088Z,74.37
2023-02-23T18:40:23.783Z,72.03
2023-02-23T18:42:51.846Z,76.63
2023-02-23T18:45:19.984Z,73.77
2023-02-23T18:47:47.932Z,76.50
2023-02-23T18:50:19.103Z,78.53
2023-02-23T18:52:50.830Z,82.87
2023-02-23T18:55:20.128Z,80.30
2023-02-23T18:57:48.189Z,77.60
2023-02-23T19:00:18.461Z,79.17
2023-02-23T19:02:47.421Z,77.03
2023-02-23T19:05:18.151Z,81.77
2023-02-23T19:07:46.974Z,75.07
2023-02-23T19:10:16.553Z,86.53
2023-02-23T19:12:44.841Z,74.43
2023-02-23T19:15:13.395Z,80.33
2023-02-23T19:17:41.403Z,77.73
2023-02-23T19:20:13.599Z,74.83
2023-02-23T19:22:42.369Z,77.07
2023-02-23T19:25:14.072Z,75.53
2023-02-23T19:27:43.586Z,74.37
2023-02-23T19:30:14.225Z,77.63
2023-02-23T19:32:42.954Z,76.13
2023-02-23T19:35:14.595Z,78.90
2023-02-23T19:37:48.889Z,74.90
2023-02-23T19:40:20.519Z,67.17
2023-02-23T19:42:51.337Z,73.10
2023-02-23T19:45:20.045Z,73.93
2023-02-23T19:47:48.026Z,74.43
2023-02-23T19:50:18.768Z,69.73
2023-02-23T19:52:47.310Z,71.63
2023-02-23T19:55:16.402Z,71.37
2023-02-23T19:57:44.428Z,73.50
2023-02-23T20:00:14.969Z,74.23
2023-02-23T20:02:45.808Z,71.73
2023-02-23T20:05:15.099Z,70.53
2023-02-23T20:07:43.842Z,73.87
2023-02-23T20:10:16.325Z,83.33
2023-02-23T20:12:44.712Z,77.13
2023-02-23T20:15:15.338Z,74.20
2023-02-23T20:17:43.269Z,78.43
2023-02-23T20:20:12.562Z,82.83
2023-02-23T20:22:42.010Z,78.50
2023-02-23T20:25:16.422Z,84.03
2023-02-23T20:27:44.815Z,80.27
2023-02-23T20:30:15.448Z,83.97
2023-02-23T20:32:43.882Z,74.53
2023-02-23T20:35:14.117Z,84.57
2023-02-23T20:37:42.228Z,72.77
2023-02-23T20:40:18.330Z,75.87
2023-02-23T20:42:48.693Z,79.23
2023-02-23T20:45:20.942Z,92.47
2023-02-23T20:47:51.979Z,94.43
2023-02-23T20:50:21.545Z,91.53
2023-02-23T20:52:50.959Z,99.73
2023-02-23T20:55:19.805Z,93.67
2023-02-23T20:57:48.856Z,103.67
2023-02-23T21:00:22.781Z,95.40
2023-02-23T21:02:55.282Z,93.23
2023-02-23T21:05:25.209Z,101.67
2023-02-23T21:07:53.698Z,104.40
2023-02-23T21:10:21.700Z,107.00
2023-02-23T21:12:49.707Z,113.13
2023-02-23T21:15:19.093Z,111.27
2023-02-23T21:17:47.086Z,111.77
2023-02-23T21:20:15.532Z,107.87
2023-02-23T21:22:44.037Z,115.03
2023-02-23T21:25:13.095Z,105.73
2023-02-23T21:27:43.016Z,113.90
2023-02-23T21:30:16.031Z,118.23
2023-02-23T21:32:45.477Z,121.27
2023-02-23T21:35:13.548Z,116.97
2023-02-23T21:37:42.233Z,118.10
2023-02-23T21:40:13.092Z,111.33
2023-02-23T21:42:42.212Z,109.10
2023-02-23T21:45:12.300Z,113.07
2023-02-23T21:47:42.583Z,114.27
2023-02-23T21:50:14.805Z,105.13
2023-02-23T21:52:44.291Z,107.20
2023-02-23T21:55:23.480Z,106.23
2023-02-23T21:57:52.758Z,115.03
2023-02-23T22:00:22.704Z,106.13
2023-02-23T22:02:51.590Z,102.83
2023-02-23T22:05:21.535Z,99.53
2023-02-23T22:07:50.834Z,97.30
2023-02-23T22:10:19.742Z,93.30
2023-02-23T22:12:47.747Z,91.10
2023-02-23T22:15:16.831Z,95.33
2023-02-23T22:17:44.880Z,80.60
2023-02-23T22:20:13.669Z,90.27
2023-02-23T22:22:43.011Z,77.70
2023-02-23T22:25:11.681Z,77.53
2023-02-23T22:27:41.574Z,79.77
2023-02-23T22:30:12.142Z,76.60
2023-02-23T22:32:40.769Z,70.03
2023-02-23T22:35:09.555Z,69.17
2023-02-23T22:37:39.071Z,63.43
2023-02-23T22:40:15.050Z,70.00
2023-02-23T22:42:47.976Z,75.07
2023-02-23T22:45:17.065Z,63.73
2023-02-23T22:47:45.439Z,61.13
2023-02-23T22:50:14.024Z,58.60
2023-02-23T22:52:43.058Z,56.47
2023-02-23T22:55:13.098Z,55.00
2023-02-23T22:57:41.271Z,48.57
2023-02-23T23:00:11.618Z,51.90
2023-02-23T23:02:39.579Z,47.20
2023-02-23T23:05:09.446Z,50.90
2023-02-23T23:07:37.431Z,48.23
2023-02-23T23:10:06.090Z,43.73
2023-02-23T23:12:35.737Z,44.80
2023-02-23T23:15:04.498Z,44.80
2023-02-23T23:17:33.049Z,37.07
2023-02-23T23:20:01.171Z,38.07
2023-02-23T23:22:29.193Z,40.17
2023-02-23T23:24:57.241Z,35.93
2023-02-23T23:27:25.341Z,34.40
2023-02-23T23:29:55.013Z,36.00
2023-02-23T23:32:27.515Z,33.10
2023-02-23T23:34:57.317Z,29.50
2023-02-23T23:37:28.952Z,37.80
2023-02-23T23:40:00.339Z,30.20
2023-02-23T23:42:28.463Z,32.30
2023-02-23T23:44:57.784Z,34.50
2023-02-23T23:47:30.400Z,27.30
2023-02-23T23:49:58.351Z,29.27
2023-02-23T23:52:26.479Z,30.60
2023-02-23T23:54:54.426Z,31.80
2023-02-23T23:57:22.392Z,28.93
2023-02-23T23:59:51.264Z,27.60
